Solebury, Pennsylvania
Current Conditions -  °F | °C
As of 11:54 PM on Wednesday 22 Oct 2014 (Local Time) from KDYL Reporting Station
Light Rain Light Rain  
Wind Chill: 50°   Ceiling: 3400
Heat Index: 50°   Visibility: 9mi
Dew Point: 48°   Wind: 14mph
Humidity: 93%   Direction: 340°NNW
Pressure: 29.78"   Gusts: 22mph
Location:  40.38°N, 75.01°W
Report Text: KDYL 230354Z AUTO 34012G19KT 9SM -RA FEW025 OVC034 10/09 A2978 RMK AO2 SLP086 P0005 T01000089 $
Loading
Personal Weather Stations






























Interactive Weather Map
Tropical Storm Tracking
New forecast layout! Learn more

10-Day Weather Forecast

Advertisements
Track Severe Weather on mobile